FAEO

Ermelo Airport

Ermelo, South Africa
METAR FAEO 190531Z 35008KT CAVOK 20/M00 Q1024
Observed Flight Rules
Sep-19 @ 05:31 UTC (10 minutes ago) Visual Flight Rules
Wind Visibility Clouds
350° at 8 knots 10,000+ meters
  • Clear skies
Temperatures Readings
Current 20°C / 68°F
Dewpoint 0°C / 32°F
Humidity 26%
Altimeter 30.24" Hg
Pressure 1024 hPa
Elevation 1737
METAR FAEO 190531Z 35008KT CAVOK 20/M00 Q1024
Observed Flight Rules
Sep-19 @ 05:31 UTC
(10 minutes ago)
VFR
Wind Visibility
350° at 8 knots 10,000+ meters
Clouds
  • Clear skies
Temperature Dewpoint
20°C / 68°F 0°C / 32°F
Humidity Altimeter Pressure
26% 30.24" Hg 1024 hPa